sensor_id;sensor_type;location;lat;lon;timestamp;temperature;humidity
29255;DHT22;16277;48.890;2.306;2022-09-03T00:11:40;24.50;93.10
29255;DHT22;16277;48.890;2.306;2022-09-03T00:26:50;24.60;93.60
29255;DHT22;16277;48.890;2.306;2022-09-03T00:42:07;24.40;94.90
29255;DHT22;16277;48.890;2.306;2022-09-03T00:57:22;24.50;95.40
29255;DHT22;16277;48.890;2.306;2022-09-03T01:12:36;24.40;95.60
29255;DHT22;16277;48.890;2.306;2022-09-03T01:28:05;23.90;97.50
29255;DHT22;16277;48.890;2.306;2022-09-03T01:43:27;24.20;97.20
29255;DHT22;16277;48.890;2.306;2022-09-03T01:58:44;24.30;97.00
29255;DHT22;16277;48.890;2.306;2022-09-03T02:13:53;24.40;96.70
29255;DHT22;16277;48.890;2.306;2022-09-03T02:29:00;24.20;96.90
29255;DHT22;16277;48.890;2.306;2022-09-03T02:44:07;24.20;97.20
29255;DHT22;16277;48.890;2.306;2022-09-03T02:59:13;24.00;97.80
29255;DHT22;16277;48.890;2.306;2022-09-03T03:14:20;24.00;98.30
29255;DHT22;16277;48.890;2.306;2022-09-03T03:29:24;23.80;99.30
29255;DHT22;16277;48.890;2.306;2022-09-03T03:44:30;24.00;99.80
29255;DHT22;16277;48.890;2.306;2022-09-03T03:59:34;23.90;99.90
29255;DHT22;16277;48.890;2.306;2022-09-03T04:14:39;23.80;99.90
29255;DHT22;16277;48.890;2.306;2022-09-03T04:29:44;23.80;99.90
29255;DHT22;16277;48.890;2.306;2022-09-03T04:44:49;23.70;99.90
29255;DHT22;16277;48.890;2.306;2022-09-03T04:59:53;23.40;99.90
29255;DHT22;16277;48.890;2.306;2022-09-03T05:14:58;23.70;99.90
29255;DHT22;16277;48.890;2.306;2022-09-03T05:30:03;23.60;99.90
29255;DHT22;16277;48.890;2.306;2022-09-03T05:45:09;23.70;99.90
29255;DHT22;16277;48.890;2.306;2022-09-03T06:00:15;23.60;99.90
29255;DHT22;16277;48.890;2.306;2022-09-03T06:15:21;23.80;99.90
29255;DHT22;16277;48.890;2.306;2022-09-03T06:30:26;23.40;99.90
29255;DHT22;16277;48.890;2.306;2022-09-03T06:45:30;23.60;99.90
29255;DHT22;16277;48.890;2.306;2022-09-03T07:00:35;23.60;99.90
29255;DHT22;16277;48.890;2.306;2022-09-03T07:15:39;23.70;99.90
29255;DHT22;16277;48.890;2.306;2022-09-03T07:30:44;23.40;99.90
29255;DHT22;16277;48.890;2.306;2022-09-03T07:45:50;23.30;99.90
29255;DHT22;16277;48.890;2.306;2022-09-03T08:00:57;23.50;99.90
29255;DHT22;16277;48.890;2.306;2022-09-03T08:16:02;23.60;99.90
29255;DHT22;16277;48.890;2.306;2022-09-03T08:31:09;23.90;99.90
29255;DHT22;16277;48.890;2.306;2022-09-03T08:46:14;23.80;99.90
29255;DHT22;16277;48.890;2.306;2022-09-03T09:01:28;23.90;99.90
29255;DHT22;16277;48.890;2.306;2022-09-03T09:16:41;23.60;99.90
29255;DHT22;16277;48.890;2.306;2022-09-03T09:31:48;23.80;99.90
29255;DHT22;16277;48.890;2.306;2022-09-03T09:47:01;24.00;99.90
29255;DHT22;16277;48.890;2.306;2022-09-03T10:02:13;24.40;99.90
29255;DHT22;16277;48.890;2.306;2022-09-03T10:17:28;24.60;99.90
29255;DHT22;16277;48.890;2.306;2022-09-03T10:32:43;24.60;99.90
29255;DHT22;16277;48.890;2.306;2022-09-03T11:03:42;24.70;99.90
29255;DHT22;16277;48.890;2.306;2022-09-03T11:18:49;24.60;99.20
29255;DHT22;16277;48.890;2.306;2022-09-03T11:33:58;24.60;99.80
29255;DHT22;16277;48.890;2.306;2022-09-03T11:49:26;25.30;98.90
29255;DHT22;16277;48.890;2.306;2022-09-03T12:04:37;25.40;98.20
29255;DHT22;16277;48.890;2.306;2022-09-03T12:19:49;25.40;96.40
29255;DHT22;16277;48.890;2.306;2022-09-03T12:34:55;25.90;95.50
29255;DHT22;16277;48.890;2.306;2022-09-03T12:50:05;26.30;94.00
29255;DHT22;16277;48.890;2.306;2022-09-03T13:05:15;26.10;95.50
29255;DHT22;16277;48.890;2.306;2022-09-03T13:20:32;26.60;95.00
29255;DHT22;16277;48.890;2.306;2022-09-03T13:35:41;25.20;98.00
29255;DHT22;16277;48.890;2.306;2022-09-03T13:50:53;24.60;99.80
29255;DHT22;16277;48.890;2.306;2022-09-03T14:06:10;23.50;99.90
29255;DHT22;16277;48.890;2.306;2022-09-03T14:21:20;24.20;99.90
29255;DHT22;16277;48.890;2.306;2022-09-03T14:36:30;24.00;99.90
29255;DHT22;16277;48.890;2.306;2022-09-03T14:51:48;24.70;99.90
29255;DHT22;16277;48.890;2.306;2022-09-03T15:07:13;24.90;99.30
29255;DHT22;16277;48.890;2.306;2022-09-03T15:22:31;30.20;83.80
29255;DHT22;16277;48.890;2.306;2022-09-03T15:37:44;32.50;71.70
29255;DHT22;16277;48.890;2.306;2022-09-03T15:52:54;30.60;75.00
29255;DHT22;16277;48.890;2.306;2022-09-03T16:08:09;32.50;67.70
29255;DHT22;16277;48.890;2.306;2022-09-03T16:23:22;32.10;68.50
29255;DHT22;16277;48.890;2.306;2022-09-03T16:38:36;31.70;67.90
29255;DHT22;16277;48.890;2.306;2022-09-03T16:54:05;29.20;73.90
29255;DHT22;16277;48.890;2.306;2022-09-03T17:09:24;28.40;76.60
29255;DHT22;16277;48.890;2.306;2022-09-03T17:24:37;28.10;76.80
29255;DHT22;16277;48.890;2.306;2022-09-03T17:40:14;27.20;76.70
29255;DHT22;16277;48.890;2.306;2022-09-03T17:55:28;26.50;78.30
29255;DHT22;16277;48.890;2.306;2022-09-03T18:10:42;26.10;79.90
29255;DHT22;16277;48.890;2.306;2022-09-03T18:25:52;25.90;82.00
29255;DHT22;16277;48.890;2.306;2022-09-03T18:41:39;25.80;83.40
29255;DHT22;16277;48.890;2.306;2022-09-03T18:57:07;25.80;84.70
29255;DHT22;16277;48.890;2.306;2022-09-03T19:12:42;25.60;85.40
29255;DHT22;16277;48.890;2.306;2022-09-03T19:28:12;25.50;87.10
29255;DHT22;16277;48.890;2.306;2022-09-03T19:43:40;25.50;88.50
29255;DHT22;16277;48.890;2.306;2022-09-03T19:59:12;25.40;89.60
29255;DHT22;16277;48.890;2.306;2022-09-03T20:14:37;25.40;90.50
29255;DHT22;16277;48.890;2.306;2022-09-03T20:29:53;25.30;90.80
29255;DHT22;16277;48.890;2.306;2022-09-03T20:45:04;25.20;90.90
29255;DHT22;16277;48.890;2.306;2022-09-03T21:00:11;25.20;91.30
29255;DHT22;16277;48.890;2.306;2022-09-03T21:15:22;25.10;91.60
29255;DHT22;16277;48.890;2.306;2022-09-03T21:30:30;25.00;92.00
29255;DHT22;16277;48.890;2.306;2022-09-03T21:45:43;25.00;92.40
